Terminal Aerodrome Forecast
Issued by NWS

Home | Current Version | Previous Version | Text Only | Print | Product List | Glossary On
Versions: 1 2 3 4 5 6 7 8 9 10 11 12 13 14 15
000
FTUS43 KSGF 291700 CCA
TAFJLN
TAF COR
KJLN 291743Z 2918/3018 VRB05KT P6SM FEW050
     FM300000 VRB04KT P6SM SKC
     FM301500 15010KT P6SM SKC=

USA.gov is the U.S. government's official web portal to all federal, state and local government web resources and services.